• Join FlightAware (Why Join?)
  • Login
  • US Flag 
07:40AM EDT


 

Airport Tracker/Info


-or-


 

Live Flight TrackerFlight Track Log ✈ AAL1459 ✈ 11-Apr-2013 ✈ KORD - KRNO

Flight Track Log - Related Links

Times and Time Zones

All times are in EDT time to prevent confusion due to time zone crossing. See the AAL1459 flight status page for this flight to view local times or setup timezone preferences in your user account.

Time Position Orientation Groundspeed Altitude Reporting Facility
EDT Latitude Longitude Course Direction KTS MPH feet Rate Location/Type
07:55PM 41.9410 -87.9140 222° Southwest 158 182 2,300  Level FlightAware
07:56PM 41.9230 -87.9350 221° Southwest 193 222 3,100 1,560 Climbing FlightAware
07:56PM 41.8990 -87.9620 220° Southwest 236 272 3,900 1,920 Climbing FlightAware
07:56PM 41.8810 -87.9880 227° Southwest 249 287 4,900 2,100 Climbing FlightAware
07:57PM 41.8760 -88.0130 255° West 252 290 5,300 480 Climbing FlightAware
07:57PM 41.8860 -88.0580 287° West 259 298 5,300 120 Level FlightAware
07:57PM 41.8920 -88.0760 294° West 259 298 5,400 1,500 Climbing FlightAware
07:58PM 41.9050 -88.1150 294° West 265 305 6,300 2,460 Climbing FlightAware
07:58PM 41.9200 -88.1610 294° West 278 320 7,700 3,000 Climbing FlightAware
07:59PM 41.9310 -88.1950 294° West 285 328 8,800 2,880 Climbing FlightAware
08:00PM 41.9600 -88.2760 296° West 303 349 11,100 2,220 Climbing FlightAware
08:00PM 41.9840 -88.3420 296° West 334 384 12,200 1,920 Climbing FlightAware
08:01PM 42.0130 -88.4230 296° West 360 414 13,700 2,700 Climbing FlightAware
08:02PM 42.0430 -88.5090 295° West 349 402 16,100 3,000 Climbing FlightAware
08:02PM 42.0730 -88.5960 295° West 356 410 18,000 2,700 Climbing FlightAware
08:03PM 42.0870 -88.6580 287° West 340 391 19,300 2,640 Climbing FlightAware
08:03PM 42.0930 -88.7300 276° West 341 392 20,900 2,400 Climbing FlightAware
08:04PM 42.1010 -88.8320 276° West 345 397 22,700 2,220 Climbing FlightAware
08:05PM 42.1100 -88.9220 278° West 346 398 24,300 2,040 Climbing FlightAware
08:06PM 42.1220 -89.0200 279° West 356 410 25,600 1,680 Climbing FlightAware
08:06PM 42.1340 -89.1040 281° West 363 418 26,700 1,680 Climbing FlightAware
08:07PM 42.1430 -89.1950 278° West 354 407 27,900 1,380 Climbing FlightAware
08:08PM 42.1450 -89.2920 272° West 367 422 28,700 1,080 Climbing FlightAware
08:08PM 42.1470 -89.3890 272° West 378 435 29,500 1,200 Climbing FlightAware
08:09PM 42.1510 -89.5010 273° West 390 449 30,400 1,080 Climbing FlightAware
08:10PM 42.1550 -89.5970 273° West 398 458 31,100 1,080 Climbing FlightAware
08:10PM 42.1610 -89.6980 275° West 403 464 31,900 1,260 Climbing FlightAware
08:11PM 42.1670 -89.8110 274° West 403 464 32,900 1,200 Climbing FlightAware
08:12PM 42.1850 -89.9100 284° West 428 493 33,600 1,260 Climbing FlightAware
08:13PM 42.1950 -90.0090 278° West 405 466 34,600 1,500 Climbing FlightAware
08:13PM 42.2010 -90.1250 274° West 396 456 35,800 1,260 Climbing FlightAware
08:14PM 42.2070 -90.2240 275° West 396 456 36,400 660 Climbing FlightAware
08:15PM 42.2120 -90.3190 274° West 396 456 36,800 540 Climbing FlightAware
08:15PM 42.2170 -90.4310 273° West 400 460 37,200 540 Climbing FlightAware
08:16PM 42.2230 -90.5460 274° West 404 465 37,600 480 Climbing FlightAware
08:17PM 42.2280 -90.6430 274° West 405 466 37,900 300 Climbing FlightAware
08:17PM 42.2320 -90.7330 273° West 401 461 38,000 60 Climbing FlightAware
08:18PM 42.2380 -90.8590 274° West 398 458 38,000  Level FlightAware
08:19PM 42.2420 -90.9570 273° West 398 458 38,000  Level FlightAware
08:20PM 42.2470 -91.0690 273° West 398 458 38,000  Level FlightAware
08:20PM 42.2510 -91.1680 273° West 400 460 38,000  Level FlightAware
08:21PM 42.2550 -91.2680 273° West 402 463 38,000  Level FlightAware
08:22PM 42.2610 -91.3840 274° West 403 464 38,000  Level FlightAware
08:22PM 42.2640 -91.4590 273° West 403 464 38,000  Level FlightAware
08:23PM 42.2700 -91.5910 274° West 402 463 38,000  Level FlightAware
08:24PM 42.2750 -91.7250 273° West 400 460 38,000  Level FlightAware
08:25PM 42.2780 -91.8200 272° West 400 460 38,000  Level FlightAware
08:25PM 42.2820 -91.9160 273° West 400 460 38,000  Level FlightAware
08:26PM 42.2850 -92.0190 272° West 401 461 38,000  Level FlightAware
08:27PM 42.2920 -92.2090 273° West 404 465 38,000  Level FlightAware
08:28PM 42.2960 -92.3100 273° West 403 464 38,000  Level FlightAware
08:29PM 42.2990 -92.4170 272° West 403 464 38,000  Level FlightAware
08:29PM 42.3020 -92.5290 272° West 402 463 38,000  Level FlightAware
08:30PM 42.3060 -92.6590 272° West 403 464 38,000  Level FlightAware
08:31PM 42.3090 -92.7630 272° West 402 463 38,000  Level FlightAware
08:32PM 42.3120 -92.8520 273° West 401 461 38,000  Level FlightAware
08:32PM 42.3150 -92.9500 272° West 401 461 38,000  Level FlightAware
08:33PM 42.3190 -93.0890 272° West 407 468 38,000  Level FlightAware
08:34PM 42.3220 -93.1940 272° West 413 475 38,000  Level FlightAware
08:34PM 42.3230 -93.2830 271° West 413 475 38,000  Level FlightAware
08:35PM 42.3240 -93.3710 271° West 413 475 38,000  Level FlightAware
08:36PM 42.3250 -93.4590 271° West 413 475 38,000  Level FlightAware
08:37PM 42.3320 -93.6640 273° West 417 480 38,000  Level FlightAware
08:38PM 42.3350 -93.7740 272° West 416 479 38,000  Level FlightAware
08:38PM 42.3360 -93.8630 271° West 416 479 38,000  Level FlightAware
08:39PM 42.3380 -93.9520 272° West 416 479 38,000  Level FlightAware
08:40PM 42.3390 -94.0400 271° West 416 479 38,000  Level FlightAware
08:40PM 42.3400 -94.1510 271° West 416 479 38,000  Level FlightAware
08:41PM 42.3410 -94.2390 271° West 416 479 38,000  Level FlightAware
08:42PM 42.3420 -94.3280 271° West 416 479 38,000  Level FlightAware
08:42PM 42.3430 -94.4160 271° West 416 479 38,000  Level FlightAware
08:43PM 42.3450 -94.5050 272° West 416 479 38,000  Level FlightAware
08:44PM 42.3460 -94.5930 271° West 416 479 38,000  Level FlightAware
08:45PM 42.3470 -94.7040 271° West 416 479 38,000  Level FlightAware
08:45PM 42.3480 -94.7920 271° West 416 479 38,000  Level FlightAware
08:46PM 42.3490 -94.8810 271° West 416 479 38,000  Level FlightAware
08:47PM 42.3510 -94.9700 272° West 416 479 38,000  Level FlightAware
08:47PM 42.3520 -95.0800 271° West 416 479 38,000  Level FlightAware
08:49PM 42.3447 -95.4947 271° West 423 487 38,000  Level Minneapolis Center
08:50PM 42.3008 -95.6444 248° West 429 494 38,000  Level Minneapolis Center
08:51PM 42.2617 -95.8228 254° West 422 486 38,000  Level Minneapolis Center
08:52PM 42.2619 -95.9847 270° West 432 497 38,000  Level Minneapolis Center
08:53PM 42.2631 -96.1456 271° West 431 496 38,000  Level Minneapolis Center
08:54PM 42.2636 -96.3050 270° West 430 495 38,000  Level Minneapolis Center
08:55PM 42.2633 -96.4658 270° West 430 495 38,000  Level Minneapolis Center
08:56PM 42.2636 -96.6250 270° West 427 491 38,000  Level Minneapolis Center
08:57PM 42.2639 -96.8161 270° West 427 491 38,000  Level Minneapolis Center
08:58PM 42.2636 -96.9739 270° West 424 488 38,000  Level Minneapolis Center
08:59PM 42.2625 -97.1319 270° West 423 487 38,000  Level Minneapolis Center
09:00PM 42.2614 -97.2889 270° West 420 483 38,000  Level Minneapolis Center
09:01PM 42.2611 -97.4453 270° West 419 482 38,000  Level Minneapolis Center
09:02PM 42.2594 -97.6014 269° West 417 480 38,000  Level Minneapolis Center
09:03PM 42.2586 -97.7889 270° West 418 481 38,000  Level Minneapolis Center
09:04PM 42.2558 -97.9508 269° West 415 478 38,000  Level Minneapolis Center
09:05PM 42.2539 -98.1083 269° West 419 482 38,000  Level Minneapolis Center
09:06PM 42.2519 -98.2633 269° West 416 479 38,000  Level Minneapolis Center
09:07PM 42.2497 -98.4169 269° West 411 473 38,000  Level Minneapolis Center
09:08PM 42.2472 -98.5672 269° West 405 466 38,000  Level Minneapolis Center
09:09PM 42.2447 -98.7181 269° West 403 464 38,000  Level Minneapolis Center
09:10PM 42.2408 -98.8981 268° West 402 463 38,000  Level Minneapolis Center
09:11PM 42.2386 -99.0467 269° West 399 459 38,000  Level Minneapolis Center
09:12PM 42.2353 -99.1975 268° West 402 463 38,000  Level Minneapolis Center
09:13PM 42.2319 -99.3464 268° West 400 460 38,000  Level Minneapolis Center
09:14PM 42.2286 -99.4956 268° West 399 459 38,000  Level Minneapolis Center
09:15PM 42.2250 -99.6467 268° West 402 463 38,000  Level Minneapolis Center
09:16PM 42.2189 -99.8100 267° West 403 464 38,000  Level Denver Center
09:17PM 42.2150 -99.9575 268° West 409 471 38,000  Level Denver Center
09:18PM 42.2108 -100.1042 268° West 411 473 38,000  Level Denver Center
09:19PM 42.2047 -100.2764 267° West 414 476 38,000  Level Denver Center
09:20PM 42.2006 -100.4242 268° West 415 478 38,000  Level Denver Center
09:21PM 42.1947 -100.5997 267° West 418 481 38,000  Level Denver Center
09:23PM 42.1894 -100.7461 267° West 413 475 38,000  Level Denver Center
09:24PM 42.1833 -100.9169 267° West 409 471 38,000  Level Denver Center
09:25PM 42.1783 -101.0656 267° West 414 476 38,000  Level Denver Center
09:30PM 42.1383 -101.9860 267° West 425 489 38,000  Level FlightAware ADS-B
09:31PM 42.1345 -102.0670 266° West 427 491 38,000  Level FlightAware ADS-B
09:31PM 42.1306 -102.1480 266° West 428 493 38,000  Level FlightAware ADS-B
09:32PM 42.1266 -102.2310 266° West 428 493 38,000  Level FlightAware ADS-B
09:32PM 42.1225 -102.3150 266° West 428 493 38,000  Level FlightAware ADS-B
09:33PM 42.1183 -102.3960 266° West 425 489 38,000  Level FlightAware ADS-B
09:33PM 42.1143 -102.4750 266° West 424 488 38,000  Level FlightAware ADS-B
09:34PM 42.1103 -102.5530 266° West 423 487 38,000  Level FlightAware ADS-B
09:34PM 42.1061 -102.6380 266° West 424 488 38,000  Level FlightAware ADS-B
09:35PM 42.1018 -102.7220 266° West 425 489 38,000  Level FlightAware ADS-B
09:35PM 42.0975 -102.8010 266° West 425 489 38,000  Level FlightAware ADS-B
09:36PM 42.0931 -102.8800 266° West 425 489 38,000  Level FlightAware ADS-B
09:36PM 42.0883 -102.9650 266° West 425 489 38,000  Level FlightAware ADS-B
09:37PM 42.0838 -103.0460 266° West 424 488 38,000  Level FlightAware ADS-B
09:37PM 42.0794 -103.1250 266° West 424 488 38,000  Level FlightAware ADS-B
09:38PM 42.0749 -103.2050 266° West 423 487 38,000  Level FlightAware ADS-B
09:38PM 42.0704 -103.2850 266° West 421 484 38,000  Level FlightAware ADS-B
09:39PM 42.0654 -103.3700 265° West 419 482 38,000  Level FlightAware ADS-B
09:40PM 42.0604 -103.4520 265° West 419 482 38,000  Level FlightAware ADS-B
09:40PM 42.0549 -103.5420 265° West 416 479 38,000  Level FlightAware ADS-B
09:41PM 42.0494 -103.6310 265° West 415 478 38,000  Level FlightAware ADS-B
09:41PM 42.0445 -103.7110 265° West 413 475 38,000  Level FlightAware ADS-B
09:42PM 42.0398 -103.7890 265° West 411 473 38,000  Level FlightAware ADS-B
09:42PM 42.0350 -103.8670 265° West 410 472 38,000  Level FlightAware ADS-B
09:43PM 42.0300 -103.9440 265° West 409 471 38,000  Level FlightAware ADS-B
09:43PM 42.0249 -104.0200 265° West 407 468 38,000  Level FlightAware ADS-B
09:44PM 42.0201 -104.0960 265° West 407 468 38,000  Level FlightAware ADS-B
09:44PM 42.0151 -104.1730 265° West 410 472 38,000  Level FlightAware ADS-B
09:45PM 42.0099 -104.2500 265° West 411 473 38,000  Level FlightAware ADS-B
09:45PM 42.0048 -104.3280 265° West 409 471 38,000  Level FlightAware ADS-B
09:46PM 41.9994 -104.4090 265° West 411 473 38,000  Level FlightAware ADS-B
09:46PM 41.9938 -104.4870 265° West 412 474 38,000  Level FlightAware ADS-B
09:47PM 41.9874 -104.5780 265° West 410 472 38,000  Level FlightAware ADS-B
09:47PM 41.9822 -104.6540 265° West 409 471 38,000  Level FlightAware ADS-B
09:48PM 41.9769 -104.7320 265° West 406 467 38,000  Level FlightAware ADS-B
09:48PM 41.9715 -104.8090 265° West 406 467 38,000  Level FlightAware ADS-B
09:49PM 41.9660 -104.8850 264° West 410 472 38,000  Level FlightAware ADS-B
09:49PM 41.9604 -104.9620 264° West 412 474 38,000  Level FlightAware ADS-B
09:50PM 41.9545 -105.0420 264° West 412 474 38,000  Level FlightAware ADS-B
09:51PM 41.9485 -105.1230 264° West 414 476 38,000  Level FlightAware ADS-B
09:51PM 41.9423 -105.2060 264° West 418 481 38,000  Level FlightAware ADS-B
09:52PM 41.9310 -105.3540 264° West 419 482 38,000  Level FlightAware ADS-B
09:53PM 41.9200 -105.5000 264° West 419 482 38,000  Level FlightAware
09:54PM 41.9110 -105.6080 264° West 419 482 38,000  Level FlightAware
09:55PM 41.8980 -105.7680 264° West 416 479 38,000  Level FlightAware
09:56PM 41.8890 -105.8890 264° West 414 476 38,000  Level FlightAware
09:56PM 41.8810 -105.9910 264° West 414 476 38,000  Level FlightAware
09:57PM 41.8720 -106.0960 263° West 415 478 38,000  Level FlightAware
09:58PM 41.8620 -106.2120 263° West 417 480 38,000  Level FlightAware
09:58PM 41.8540 -106.3130 264° West 418 481 38,000  Level FlightAware
09:59PM 41.8430 -106.4340 263° West 418 481 38,000  Level FlightAware
10:00PM 41.8290 -106.5950 263° West 417 480 38,000  Level FlightAware
10:01PM 41.8210 -106.6820 263° West 417 480 38,000  Level FlightAware
10:02PM 41.8130 -106.7700 263° West 417 480 38,000  Level FlightAware
10:02PM 41.8050 -106.8570 263° West 417 480 38,000  Level FlightAware
10:03PM 41.7970 -106.9440 263° West 417 480 38,000  Level FlightAware
10:04PM 41.7890 -107.0320 263° West 417 480 38,000  Level FlightAware
10:04PM 41.7790 -107.1410 263° West 417 480 38,000  Level FlightAware
10:05PM 41.7710 -107.2280 263° West 417 480 38,000  Level FlightAware
10:06PM 41.7630 -107.3150 263° West 417 480 38,000  Level FlightAware
10:06PM 41.7550 -107.4030 263° West 417 480 38,000  Level FlightAware
10:07PM 41.7470 -107.4900 263° West 417 480 38,000  Level FlightAware
10:08PM 41.7370 -107.5990 263° West 417 480 38,000  Level FlightAware
10:09PM 41.7290 -107.6860 263° West 417 480 38,000  Level FlightAware
10:09PM 41.7210 -107.7730 263° West 417 480 38,000  Level FlightAware
10:10PM 41.6861 -108.1136 263° West 428 493 38,000  Level Salt Lake Center
10:11PM 41.6703 -108.2622 262° West 424 488 38,000  Level Salt Lake Center
10:12PM 41.6522 -108.4403 262° West 431 496 38,000  Level Salt Lake Center
10:13PM 41.6381 -108.5919 263° West 431 496 38,000  Level Salt Lake Center
10:14PM 41.6189 -108.7642 262° West 423 487 38,000  Level Salt Lake Center
10:15PM 41.6033 -108.9114 262° West 421 484 38,000  Level Salt Lake Center
10:16PM 41.5850 -109.0808 262° West 419 482 38,000  Level Salt Lake Center
10:17PM 41.5686 -109.2242 261° West 417 480 38,000  Level Salt Lake Center
10:23PM 41.4660 -110.1130 261° West 414 476 38,000  Level FlightAware
10:24PM 41.4510 -110.2450 261° West 414 476 38,000  Level FlightAware
10:25PM 41.4410 -110.3310 261° West 414 476 38,000  Level FlightAware
10:25PM 41.4240 -110.4600 260° West 417 480 38,000  Level FlightAware
10:26PM 41.4110 -110.5670 261° West 417 480 38,000  Level FlightAware
10:27PM 41.3940 -110.7080 261° West 416 479 38,000  Level FlightAware
10:28PM 41.3800 -110.8200 261° West 415 478 38,000  Level FlightAware
10:28PM 41.3670 -110.9220 260° West 414 476 38,000  Level FlightAware
10:29PM 41.3540 -111.0220 260° West 412 474 38,000  Level FlightAware
10:30PM 41.3400 -111.1340 261° West 410 472 38,000  Level FlightAware
10:30PM 41.3270 -111.2330 260° West 408 470 38,000  Level FlightAware
10:31PM 41.3130 -111.3440 261° West 409 471 38,000  Level FlightAware
10:32PM 41.3000 -111.4430 260° West 407 468 38,000  Level FlightAware
10:33PM 41.2860 -111.5520 260° West 403 464 38,000  Level FlightAware
10:33PM 41.2720 -111.6510 259° West 402 463 38,000  Level FlightAware
10:34PM 41.2570 -111.7610 260° West 401 461 38,000  Level FlightAware
10:35PM 41.2450 -111.8580 261° West 401 461 38,000  Level FlightAware
10:35PM 41.2300 -111.9670 260° West 400 460 38,000  Level FlightAware
10:36PM 41.2160 -112.0650 259° West 400 460 38,000  Level FlightAware
10:37PM 41.2030 -112.1600 260° West 400 460 38,000  Level FlightAware
10:38PM 41.1880 -112.2700 260° West 400 460 38,000  Level FlightAware
10:38PM 41.1750 -112.3650 260° West 400 460 38,000  Level FlightAware
10:39PM 41.1600 -112.4740 260° West 399 459 38,000  Level FlightAware
10:40PM 41.1460 -112.5710 259° West 399 459 38,000  Level FlightAware
10:40PM 41.1340 -112.6560 259° West 399 459 38,000  Level FlightAware
10:41PM 41.1170 -112.7760 259° West 400 460 38,000  Level FlightAware
10:42PM 41.1020 -112.8740 259° West 400 460 38,000  Level FlightAware
10:42PM 41.0870 -112.9810 259° West 400 460 38,000  Level FlightAware
10:43PM 41.0730 -113.0810 260° West 401 461 38,000  Level FlightAware
10:44PM 41.0590 -113.1760 259° West 400 460 38,000  Level FlightAware
10:45PM 41.0420 -113.2860 258° West 402 463 38,000  Level FlightAware
10:45PM 41.0280 -113.3800 259° West 400 460 38,000  Level FlightAware
10:46PM 41.0150 -113.4700 259° West 402 463 38,000  Level FlightAware
10:47PM 40.9970 -113.5860 258° West 416 479 38,000  Level FlightAware
10:47PM 40.9850 -113.6610 258° West 417 480 38,000  Level FlightAware
10:48PM 40.9680 -113.7670 258° West 417 480 38,000  Level FlightAware
10:49PM 40.9500 -113.8970 260° West 38,000  Level FlightAware
10:49PM 40.9350 -113.9930 258° West 414 476 38,000  Level FlightAware
10:50PM 40.9150 -114.1190 258° West 414 476 38,000  Level FlightAware
10:51PM 40.9010 -114.2040 258° West 414 476 38,000  Level FlightAware
10:52PM 40.8880 -114.2880 258° West 414 476 38,000  Level FlightAware
10:52PM 40.8740 -114.3720 258° West 414 476 38,000  Level FlightAware
10:53PM 40.8600 -114.4560 258° West 414 476 38,000  Level FlightAware
10:54PM 40.8440 -114.5620 259° West 414 476 38,000  Level FlightAware
10:55PM 40.8300 -114.6460 258° West 414 476 38,000  Level FlightAware
10:55PM 40.8160 -114.7300 258° West 414 476 38,000  Level FlightAware
10:56PM 40.8030 -114.8140 258° West 414 476 38,000  Level FlightAware
10:57PM 40.7890 -114.8980 258° West 414 476 38,000  Level FlightAware
10:57PM 40.7720 -115.0030 258° West 414 476 38,000  Level FlightAware
10:58PM 40.7590 -115.0880 259° West 414 476 38,000  Level FlightAware
10:59PM 40.7450 -115.1720 258° West 414 476 38,000  Level FlightAware
10:59PM 40.6950 -115.4708 258° West 417 480 38,000  Level Salt Lake Center
11:00PM 40.6669 -115.6389 258° West 420 483 38,000  Level Salt Lake Center
11:01PM 40.6417 -115.7814 257° West 418 481 38,000  Level Salt Lake Center
11:02PM 40.6122 -115.9478 257° West 417 480 38,000  Level Salt Lake Center
11:04PM 40.5894 -116.0908 258° West 418 481 38,000  Level Salt Lake Center
11:05PM 40.5633 -116.2336 257° West 419 482 38,000  Level Salt Lake Center
11:06PM 40.5350 -116.4006 257° West 419 482 38,000  Level Salt Lake Center
11:07PM 40.5092 -116.5428 257° West 418 481 38,000  Level Salt Lake Center
11:08PM 40.4797 -116.7072 257° West 417 480 38,000  Level Salt Lake Center
11:09PM 40.4519 -116.8567 256° West 416 479 38,000  Level Salt Lake Center
11:10PM 40.4256 -117.0044 257° West 413 475 38,000  Level Salt Lake Center
11:11PM 40.4000 -117.1464 257° West 416 479 38,000 -240 Level Salt Lake Center
11:12PM 40.3689 -117.3092 256° West 414 476 37,600 -660 Descending Salt Lake Center
11:13PM 40.3425 -117.4506 256° West 416 479 36,700 -900 Descending Salt Lake Center
11:14PM 40.3161 -117.5903 256° West 414 476 35,800 -1,020 Descending Salt Lake Center
11:15PM 40.2639 -117.7419 246° West 416 479 34,700 -1,020 Descending Salt Lake Center
11:16PM 40.1997 -117.8619 235° Southwest 419 482 33,800 -1,020 Descending Salt Lake Center
11:16PM 40.1664 -117.9275 236° Southwest 416 479 33,300 -1,080 Descending Oakland Center
11:17PM 40.1003 -118.0564 236° Southwest 422 486 32,300 -960 Descending Oakland Center
11:18PM 40.0358 -118.1833 236° Southwest 422 486 31,400 -960 Descending Oakland Center
11:19PM 39.9689 -118.3117 236° Southwest 426 490 30,400 -1,380 Descending Oakland Center
11:20PM 39.9022 -118.4383 236° Southwest 426 490 28,600 -2,040 Descending Oakland Center
11:21PM 39.8381 -118.5606 236° Southwest 413 475 26,300 -2,280 Descending Oakland Center
11:22PM 39.7761 -118.6794 236° Southwest 402 463 24,000 -2,220 Descending Oakland Center
11:23PM 39.7156 -118.7947 236° Southwest 391 450 21,800 -1,980 Descending Oakland Center
11:24PM 39.6567 -118.9053 235° Southwest 378 435 20,000 -2,100 Descending Oakland Center
11:25PM 39.5853 -119.0403 236° Southwest 382 440 17,600 -2,220 Descending Oakland Center
11:26PM 39.5281 -119.1481 235° Southwest 371 427 15,500 -1,500 Descending Oakland Center
11:27PM 39.4661 -119.2458 231° Southwest 357 411 14,600 -840 Descending Oakland Center
11:28PM 39.3975 -119.3269 222° Southwest 340 391 13,800 -1,200 Descending Oakland Center
11:29PM 39.3353 -119.3997 222° Southwest 312 359 12,200 -1,440 Descending Oakland Center
11:30PM 39.2781 -119.4750 226° Southwest 301 346 10,900 -600 Descending Oakland Center
11:31PM 39.2211 -119.5497 225° Southwest 296 341 11,000  Climbing Oakland Center
11:32PM 39.1653 -119.6217 225° Southwest 291 335 10,900 -720 Descending Oakland Center
11:34PM 39.1597 -119.7083 265° West 280 322 9,600 -720 Descending Oakland Center
11:39PM 39.3620 -119.7670 265° West 186 214 6,500 -660 Descending FlightAware
11:39PM 39.4070 -119.7670 360° North 171 197 6,000 -1,380 Descending FlightAware
11:40PM 39.4200 -119.7670 360° North 152 175 5,700 -540 Descending FlightAware
11:40PM 39.4320 -119.7670 360° North 150 173 5,500 -600 Descending FlightAware
11:41PM 39.4460 -119.7670 360° North 151 174 5,200 -480 Descending FlightAware
11:41PM 39.4560 -119.7670 360° North 151 174 5,100 -240 Descending FlightAware